Terminal Aerodrome Forecast
Issued by NWS Lake Charles, LA

Home | Current Version | Previous Version | Text Only | Print | Product List | Glossary On
Versions: 1 2 3 4 5 6 7 8 9 10 11 12
000
FTUS44 KLCH 221138
TAFLCH
TAF
KLCH 221138Z 2212/2312 VRB03KT P6SM FEW040
     FM221600 14007KT P6SM VCSH SCT030 SCT250
      TEMPO 2218/2222 4SM -TSRA SCT024 BKN035CB
     FM222200 00000KT P6SM VCSH FEW045 BKN250
      TEMPO 2222/2224 4SM -TSRA BKN040CB=

USA.gov is the U.S. government's official web portal to all federal, state and local government web resources and services.